createdAt,value
2018-07-11T09:21:48.307Z,24.1
2018-07-11T09:23:19.602Z,24.4
2018-07-11T09:28:59.812Z,24.5
2018-07-11T09:34:40.799Z,24.2
2018-07-11T09:52:04.655Z,23.4
2018-07-11T10:01:58.022Z,23.2
2018-07-11T10:07:29.290Z,23.2
2018-07-11T10:12:59.347Z,23.1
2018-07-11T10:18:29.710Z,23.1
2018-07-11T10:24:00.460Z,23.1
2018-07-11T10:29:30.409Z,23
2018-07-11T10:35:01.722Z,23.1
2018-07-11T10:40:32.512Z,23.1
2018-07-11T10:46:02.605Z,23.6
2018-07-11T10:51:37.930Z,24.1
2018-07-11T10:57:07.699Z,24.2
2018-07-11T11:08:06.397Z,24.7
2018-07-11T11:13:58.038Z,24.7
2018-07-11T11:20:36.053Z,24.7
2018-07-11T11:24:44.746Z,24.7
2018-07-11T11:30:13.400Z,24.7
2018-07-11T11:35:44.067Z,24.4
2018-07-11T11:41:09.422Z,24.3
2018-07-11T11:46:41.003Z,24.4
2018-07-11T11:53:21.805Z,24.2
2018-07-11T11:57:41.732Z,24
2018-07-11T12:03:12.155Z,23.9
2018-07-11T12:08:43.675Z,23.9
2018-07-11T12:14:20.160Z,24
2018-07-11T12:19:46.508Z,24.1
2018-07-11T12:25:16.815Z,24.2
2018-07-11T12:30:47.294Z,24.4
2018-07-11T12:36:24.049Z,24.4
2018-07-11T12:47:19.879Z,24.5
2018-07-11T12:52:51.305Z,24.5
2018-07-11T12:58:26.844Z,24.6
2018-07-11T13:03:57.416Z,24.6
2018-07-11T13:09:22.766Z,24.7
2018-07-11T13:14:54.552Z,24.8
2018-07-11T13:20:25.772Z,24.8
2018-07-11T13:25:56.607Z,24.8
2018-07-11T13:31:33.187Z,24.6
2018-07-11T13:36:59.344Z,24.5
2018-07-11T13:42:30.084Z,24.5
2018-07-11T13:48:01.390Z,24.6
2018-07-11T13:53:31.928Z,24.8
2018-07-11T13:59:07.920Z,24.8
2018-07-11T14:04:32.903Z,24.8
2018-07-11T14:10:09.484Z,24.7
2018-07-11T14:15:36.205Z,24.7
2018-07-11T14:21:11.655Z,24.6
2018-07-11T14:26:38.543Z,24.6
2018-07-11T14:32:09.547Z,24.5
2018-07-11T14:37:39.946Z,24.5
2018-07-11T14:43:16.530Z,24.5
2018-07-11T14:48:46.978Z,24.6
2018-07-11T14:54:17.814Z,24.6
2018-07-11T14:59:44.021Z,24.6
2018-07-11T14:59:49.618Z,24.6
2018-07-11T15:05:14.582Z,24.6
2018-07-11T15:10:50.187Z,24.6
2018-07-11T15:16:21.735Z,24.6
2018-07-11T15:21:48.334Z,24.6
2018-07-11T15:27:18.607Z,24.6
2018-07-11T15:32:54.102Z,24.6
2018-07-11T15:38:25.853Z,24.5
2018-07-11T15:43:51.182Z,24.4
2018-07-11T15:49:27.049Z,24.3
2018-07-11T15:54:52.276Z,24.3
2018-07-11T16:00:28.821Z,24.4
2018-07-11T16:05:54.195Z,24.4
2018-07-11T16:11:24.955Z,24.4
2018-07-11T16:17:00.080Z,24.3
2018-07-11T16:22:25.459Z,24.2
2018-07-11T16:27:56.914Z,24.1
2018-07-11T16:33:32.714Z,24
2018-07-11T16:38:58.851Z,23.9
2018-07-11T16:44:30.264Z,23.7
2018-07-11T16:44:30.627Z,23.7
2018-07-11T16:50:00.621Z,23.7
2018-07-11T16:55:37.055Z,23.6
2018-07-11T17:01:03.657Z,23.6
2018-07-11T17:06:39.171Z,23.6
2018-07-11T17:12:05.164Z,23.6
2018-07-11T17:17:41.835Z,23.6
2018-07-11T17:23:08.039Z,23.5
2018-07-11T17:28:39.448Z,23.5
2018-07-11T17:34:10.009Z,23.4
2018-07-11T17:39:40.258Z,23.4
2018-07-11T17:45:10.499Z,23.4
2018-07-11T17:50:41.816Z,23.4
2018-07-11T17:56:54.036Z,23.3
2018-07-11T18:01:44.894Z,23.3
2018-07-11T18:07:21.346Z,23.2
2018-07-11T18:12:46.376Z,23.2
2018-07-11T18:18:16.582Z,23.2
2018-07-11T18:23:53.243Z,23.2
2018-07-11T18:29:19.306Z,23.2
2018-07-11T18:34:54.695Z,23.2
2018-07-11T18:40:25.991Z,23.1
2018-07-11T18:45:53.231Z,23.1
2018-07-11T18:51:24.021Z,23.1
2018-07-11T18:56:55.009Z,23.1
2018-07-11T19:02:25.351Z,23.1
2018-07-11T19:08:00.716Z,23
2018-07-11T19:13:25.981Z,22.9
2018-07-11T19:18:56.295Z,22.8
2018-07-11T19:24:27.832Z,22.7
2018-07-11T19:29:58.928Z,22.6
2018-07-11T19:35:34.154Z,22.5
2018-07-11T19:41:00.620Z,22.3
2018-07-11T19:46:35.613Z,22.2
2018-07-11T19:52:06.112Z,22.1
2018-07-11T19:57:36.058Z,21.9
2018-07-11T20:03:07.254Z,21.8
2018-07-11T20:08:33.659Z,21.6
2018-07-11T20:14:09.540Z,21.5
2018-07-11T20:19:35.695Z,21.4
2018-07-11T20:25:06.028Z,21.2
2018-07-11T20:30:36.934Z,21.1
2018-07-11T20:36:12.075Z,21
2018-07-11T20:41:37.132Z,20.9
2018-07-11T20:47:08.221Z,20.8
2018-07-11T20:52:38.474Z,20.7
2018-07-11T20:58:08.325Z,20.6
2018-07-11T21:03:38.269Z,20.4
2018-07-11T21:09:09.548Z,20.4
2018-07-11T21:14:40.489Z,20.3
2018-07-11T21:20:10.586Z,20.2
2018-07-11T21:25:40.396Z,20.2
2018-07-11T21:31:10.415Z,20.1
2018-07-11T21:36:40.737Z,20.1
2018-07-11T21:42:16.328Z,20
2018-07-11T21:47:47.887Z,20
2018-07-11T21:53:17.296Z,20
2018-07-11T21:58:43.348Z,19.9
2018-07-11T22:04:13.261Z,19.9
2018-07-11T22:09:44.212Z,19.8
2018-07-11T22:15:20.313Z,19.8
2018-07-11T22:20:51.375Z,19.7
2018-07-11T22:26:16.041Z,19.7
2018-07-11T22:31:45.962Z,19.6
2018-07-11T22:37:16.037Z,19.6
2018-07-11T22:42:45.856Z,19.6
2018-07-11T22:48:20.829Z,19.6
2018-07-11T22:53:46.638Z,19.6
2018-07-11T22:59:16.793Z,19.6
2018-07-11T23:04:52.829Z,19.6
2018-07-11T23:10:23.444Z,19.6
2018-07-11T23:15:53.499Z,19.5
2018-07-11T23:21:23.565Z,19.4
2018-07-11T23:26:48.140Z,19.4
2018-07-11T23:32:23.332Z,19.4
2018-07-11T23:37:49.495Z,19.4
2018-07-11T23:43:18.854Z,19.4
2018-07-11T23:48:48.745Z,19.3
2018-07-11T23:54:19.897Z,19.3
2018-07-11T23:59:50.774Z,19.2
